createdAt,value
2023-02-19T00:01:47.586Z,101639.78
2023-02-19T00:04:24.624Z,101646.88
2023-02-19T00:06:51.745Z,101640.78
2023-02-19T00:09:20.086Z,101637.25
2023-02-19T00:11:48.084Z,101630.25
2023-02-19T00:14:20.309Z,101631.09
2023-02-19T00:16:48.705Z,101637.28
2023-02-19T00:19:20.491Z,101627.63
2023-02-19T00:21:51.439Z,101633.72
2023-02-19T00:24:19.105Z,101623.22
2023-02-19T00:26:47.203Z,101632.03
2023-02-19T00:29:19.460Z,101630.25
2023-02-19T00:31:47.385Z,101633.72
2023-02-19T00:34:14.646Z,101643.53
2023-02-19T00:36:43.032Z,101649.72
2023-02-19T00:39:16.029Z,101641.03
2023-02-19T00:41:44.178Z,101651.66
2023-02-19T00:44:13.230Z,101646.44
2023-02-19T00:46:48.608Z,101643.88
2023-02-19T00:49:22.465Z,101651.88
2023-02-19T00:51:52.620Z,101651.94
2023-02-19T00:54:22.397Z,101658.16
2023-02-19T00:56:50.267Z,101657.34
2023-02-19T00:59:17.814Z,101653.84
2023-02-19T01:01:45.352Z,101653.88
2023-02-19T01:04:13.470Z,101657.41
2023-02-19T01:06:41.319Z,101665.31
2023-02-19T01:09:08.521Z,101660.06
2023-02-19T01:11:35.979Z,101644.31
2023-02-19T01:14:03.864Z,101656.56
2023-02-19T01:16:31.086Z,101654.81
2023-02-19T01:18:58.930Z,101646.09
2023-02-19T01:21:29.407Z,101662.75
2023-02-19T01:23:58.301Z,101660.13
2023-02-19T01:26:31.831Z,101651.34
2023-02-19T01:29:02.304Z,101653.09
2023-02-19T01:31:30.440Z,101660.09
2023-02-19T01:34:01.268Z,101655.72
2023-02-19T01:36:32.614Z,101663.63
2023-02-19T01:39:04.040Z,101663.63
2023-02-19T01:41:34.962Z,101667.13
2023-02-19T01:44:12.161Z,101664.50
2023-02-19T01:46:44.828Z,101675.00
2023-02-19T01:49:30.286Z,101675.00
2023-02-19T01:52:34.278Z,101671.53
2023-02-19T01:55:04.963Z,101682.91
2023-02-19T01:57:44.212Z,101673.22
2023-02-19T02:00:15.240Z,101681.09
2023-02-19T02:02:48.655Z,101667.06
2023-02-19T02:05:36.085Z,101673.19
2023-02-19T02:08:23.054Z,101661.75
2023-02-19T02:10:52.663Z,101671.47
2023-02-19T02:13:20.553Z,101678.47
2023-02-19T02:16:24.458Z,101674.94
2023-02-19T02:19:25.560Z,101670.56
2023-02-19T02:22:07.669Z,101673.19
2023-02-19T02:25:11.602Z,101671.50
2023-02-19T02:27:53.601Z,101671.50
2023-02-19T02:30:37.874Z,101678.50
2023-02-19T02:33:26.428Z,101682.06
2023-02-19T02:36:05.748Z,101675.00
2023-02-19T02:38:38.778Z,101680.31
2023-02-19T02:41:06.985Z,101671.59
2023-02-19T02:43:34.369Z,101676.09
2023-02-19T02:46:01.502Z,101679.69
2023-02-19T02:48:46.401Z,101677.94
2023-02-19T02:51:27.367Z,101677.13
2023-02-19T02:54:30.640Z,101679.78
2023-02-19T02:57:01.060Z,101680.66
2023-02-19T02:59:39.285Z,101688.56
2023-02-19T03:02:18.614Z,101698.25
2023-02-19T03:05:23.227Z,101699.16
2023-02-19T03:08:18.656Z,101693.03
2023-02-19T03:11:24.146Z,101697.44
2023-02-19T03:14:15.257Z,101700.13
2023-02-19T03:17:04.404Z,101699.28
2023-02-19T03:19:42.212Z,101708.94
2023-02-19T03:22:21.327Z,101708.06
2023-02-19T03:25:19.239Z,101715.06
2023-02-19T03:27:49.579Z,101720.34
2023-02-19T03:30:23.446Z,101718.59
2023-02-19T03:33:22.265Z,101731.75
2023-02-19T03:36:05.325Z,101724.78
2023-02-19T03:38:44.561Z,101721.28
2023-02-19T03:41:31.132Z,101724.81
2023-02-19T03:44:17.792Z,101722.19
2023-02-19T03:47:24.263Z,101729.25
2023-02-19T03:50:18.257Z,101730.09
2023-02-19T03:53:11.761Z,101731.88
2023-02-19T03:56:11.691Z,101737.13
2023-02-19T03:58:58.919Z,101749.41
2023-02-19T04:01:39.533Z,101747.63
2023-02-19T04:04:16.726Z,101754.66
2023-02-19T04:06:53.377Z,101748.53
2023-02-19T04:09:25.145Z,101746.72
2023-02-19T04:12:00.114Z,101759.00
2023-02-19T04:14:46.201Z,101758.19
2023-02-19T04:17:22.132Z,101766.03
2023-02-19T04:19:53.006Z,101762.53
2023-02-19T04:22:22.739Z,101773.91
2023-02-19T04:24:53.558Z,101775.63
2023-02-19T04:27:20.512Z,101787.03
2023-02-19T04:29:47.777Z,101773.91
2023-02-19T04:32:14.951Z,101780.03
2023-02-19T04:34:41.896Z,101787.09
2023-02-19T04:37:08.937Z,101793.28
2023-02-19T04:39:36.308Z,101786.25
2023-02-19T04:42:03.974Z,101786.28
2023-02-19T04:44:30.946Z,101801.19
2023-02-19T04:46:57.866Z,101802.97
2023-02-19T04:49:24.766Z,101818.78
2023-02-19T04:51:51.735Z,101817.91
2023-02-19T04:54:18.697Z,101817.94
2023-02-19T04:56:45.673Z,101817.94
2023-02-19T04:59:12.851Z,101823.19
2023-02-19T05:01:39.875Z,101824.97
2023-02-19T05:04:06.940Z,101835.50
2023-02-19T05:06:34.127Z,101828.50
2023-02-19T05:09:01.069Z,101836.41
2023-02-19T05:11:28.088Z,101841.69
2023-02-19T05:13:56.245Z,101829.41
2023-02-19T05:16:23.175Z,101848.66
2023-02-19T05:18:50.155Z,101853.06
2023-02-19T05:21:17.142Z,101855.69
2023-02-19T05:23:44.544Z,101850.44
2023-02-19T05:26:19.770Z,101861.84
2023-02-19T05:28:50.944Z,101861.84
2023-02-19T05:31:18.984Z,101861.84
2023-02-19T05:33:51.082Z,101858.31
2023-02-19T05:36:21.296Z,101849.56
2023-02-19T05:38:52.670Z,101860.94
2023-02-19T05:41:24.179Z,101867.09
2023-02-19T05:43:52.053Z,101872.34
2023-02-19T05:46:22.993Z,101870.59
2023-02-19T05:48:52.730Z,101874.06
2023-02-19T05:51:24.471Z,101869.72
2023-02-19T05:53:52.478Z,101875.84
2023-02-19T05:56:36.751Z,101872.34
2023-02-19T05:59:15.916Z,101869.75
2023-02-19T06:01:44.118Z,101872.38
2023-02-19T06:04:12.527Z,101881.16
2023-02-19T06:06:40.670Z,101875.00
2023-02-19T06:09:09.634Z,101880.28
2023-02-19T06:11:37.790Z,101885.50
2023-02-19T06:14:06.241Z,101887.28
2023-02-19T06:16:34.440Z,101891.66
2023-02-19T06:19:04.976Z,101891.66
2023-02-19T06:21:32.224Z,101905.69
2023-02-19T06:23:59.234Z,101902.16
2023-02-19T06:26:26.589Z,101909.16
2023-02-19T06:28:54.684Z,101905.66
2023-02-19T06:31:23.467Z,101908.31
2023-02-19T06:33:50.900Z,101912.69
2023-02-19T06:36:22.280Z,101910.06
2023-02-19T06:38:49.499Z,101917.94
2023-02-19T06:41:19.521Z,101924.06
2023-02-19T06:43:46.829Z,101935.44
2023-02-19T06:46:14.430Z,101942.44
2023-02-19T06:48:45.596Z,101952.06
2023-02-19T06:51:16.161Z,101952.94
2023-02-19T06:53:43.271Z,101949.47
2023-02-19T06:56:27.315Z,101957.34
2023-02-19T06:59:03.276Z,101952.94
2023-02-19T07:01:36.926Z,101952.94
2023-02-19T07:04:06.877Z,101955.59
2023-02-19T07:06:35.668Z,101955.59
2023-02-19T07:09:05.192Z,101958.19
2023-02-19T07:11:35.240Z,101966.94
2023-02-19T07:14:04.872Z,101974.84
2023-02-19T07:16:34.637Z,101976.59
2023-02-19T07:19:01.766Z,101967.84
2023-02-19T07:21:37.975Z,101987.97
2023-02-19T07:24:05.943Z,101989.69
2023-02-19T07:26:33.035Z,101989.72
2023-02-19T07:29:00.926Z,101992.34
2023-02-19T07:31:28.782Z,101994.09
2023-02-19T07:33:55.990Z,102001.09
2023-02-19T07:36:25.501Z,102008.94
2023-02-19T07:38:57.322Z,102022.97
2023-02-19T07:41:26.248Z,102012.47
2023-02-19T07:43:56.881Z,102030.00
2023-02-19T07:46:24.662Z,102032.59
2023-02-19T07:48:51.601Z,102035.22
2023-02-19T07:51:20.358Z,102042.22
2023-02-19T07:53:52.366Z,102049.25
2023-02-19T07:56:20.632Z,102051.00
2023-02-19T07:58:47.842Z,102051.88
2023-02-19T08:01:40.560Z,102043.09
2023-02-19T08:04:08.166Z,102046.59
2023-02-19T08:06:35.213Z,102047.44
2023-02-19T08:09:02.186Z,102057.09
2023-02-19T08:11:47.750Z,102074.66
2023-02-19T08:14:14.724Z,102072.91
2023-02-19T08:16:52.430Z,102079.94
2023-02-19T08:19:20.995Z,102088.69
2023-02-19T08:21:48.181Z,102077.31
2023-02-19T08:24:15.184Z,102075.59
2023-02-19T08:26:42.129Z,102082.59
2023-02-19T08:29:09.143Z,102083.47
2023-02-19T08:31:42.235Z,102078.19
2023-02-19T08:34:09.347Z,102083.44
2023-02-19T08:36:36.494Z,102082.53
2023-02-19T08:39:03.693Z,102080.75
2023-02-19T08:41:30.727Z,102072.84
2023-02-19T08:43:57.710Z,102082.47
2023-02-19T08:46:24.809Z,102084.22
2023-02-19T08:48:52.193Z,102094.72
2023-02-19T08:51:19.174Z,102101.72
2023-02-19T08:53:46.824Z,102102.63
2023-02-19T08:56:17.394Z,102107.00
2023-02-19T08:58:45.201Z,102115.75
2023-02-19T09:01:18.594Z,102114.84
2023-02-19T09:03:46.041Z,102120.94
2023-02-19T09:06:17.408Z,102121.78
2023-02-19T09:08:44.762Z,102139.34
2023-02-19T09:11:12.671Z,102117.38
2023-02-19T09:13:39.842Z,102121.78
2023-02-19T09:16:07.271Z,102140.16
2023-02-19T09:18:34.707Z,102132.19
2023-02-19T09:21:05.038Z,102129.56
2023-02-19T09:23:39.604Z,102135.69
2023-02-19T09:26:09.906Z,102123.38
2023-02-19T09:28:39.654Z,102113.69
2023-02-19T09:31:14.557Z,102130.41
2023-02-19T09:33:47.296Z,102140.06
2023-02-19T09:36:18.737Z,102136.59
2023-02-19T09:38:45.892Z,102132.25
2023-02-19T09:41:31.975Z,102145.47
2023-02-19T09:44:06.184Z,102144.56
2023-02-19T09:46:52.822Z,102156.84
2023-02-19T09:49:31.875Z,102154.22
2023-02-19T09:52:08.003Z,102167.31
2023-02-19T09:54:38.080Z,102174.28
2023-02-19T09:57:13.673Z,102191.66
2023-02-19T09:59:52.116Z,102200.41
2023-02-19T10:02:25.697Z,102195.22
2023-02-19T10:04:53.727Z,102198.81
2023-02-19T10:07:51.079Z,102210.22
2023-02-19T10:10:29.475Z,102207.53
2023-02-19T10:13:15.218Z,102220.63
2023-02-19T10:16:00.680Z,102222.34
2023-02-19T10:18:37.206Z,102240.84
2023-02-19T10:21:05.503Z,102245.28
2023-02-19T10:23:33.370Z,102241.84
2023-02-19T10:26:00.757Z,102253.22
2023-02-19T10:28:34.591Z,102260.28
2023-02-19T10:31:20.391Z,102261.09
2023-02-19T10:33:54.201Z,102266.31
2023-02-19T10:36:36.191Z,102265.41
2023-02-19T10:39:23.159Z,102267.19
2023-02-19T10:41:54.448Z,102267.22
2023-02-19T10:44:31.990Z,102274.31
2023-02-19T10:47:01.151Z,102282.25
2023-02-19T10:49:40.538Z,102290.19
2023-02-19T10:52:27.170Z,102304.25
2023-02-19T10:55:17.272Z,102299.03
2023-02-19T10:57:44.699Z,102306.91
2023-02-19T11:00:30.581Z,102313.94
2023-02-19T11:03:20.202Z,102289.38
2023-02-19T11:06:08.309Z,102285.88
2023-02-19T11:08:48.755Z,102292.91
2023-02-19T11:11:37.073Z,102290.28
2023-02-19T11:14:18.186Z,102291.13
2023-02-19T11:16:53.183Z,102285.84
2023-02-19T11:19:40.158Z,102291.09
2023-02-19T11:22:41.953Z,102277.03
2023-02-19T11:25:14.738Z,102266.41
2023-02-19T11:28:23.007Z,102262.00
2023-02-19T11:30:49.948Z,102262.06
2023-02-19T11:33:16.941Z,102262.97
2023-02-19T11:35:45.694Z,102255.03
2023-02-19T11:38:16.697Z,102265.56
2023-02-19T11:41:01.837Z,102269.94
2023-02-19T11:43:47.883Z,102273.47
2023-02-19T11:46:53.422Z,102268.22
2023-02-19T11:49:44.422Z,102269.97
2023-02-19T11:52:33.211Z,102278.78
2023-02-19T11:55:30.969Z,102284.03
2023-02-19T11:58:47.072Z,102289.31
2023-02-19T12:01:44.546Z,102296.34
2023-02-19T12:04:37.853Z,102284.97
2023-02-19T12:07:23.482Z,102297.25
2023-02-19T12:10:22.723Z,102284.97
2023-02-19T12:13:16.228Z,102291.13
2023-02-19T12:16:31.425Z,102298.13
2023-02-19T12:19:17.063Z,102304.28
2023-02-19T12:22:20.308Z,102292.84
2023-02-19T12:25:18.637Z,102299.88
2023-02-19T12:28:09.858Z,102297.22
2023-02-19T12:31:23.691Z,102299.88
2023-02-19T12:34:18.187Z,102288.44
2023-02-19T12:37:04.747Z,102293.69
2023-02-19T12:39:44.968Z,102279.66
2023-02-19T12:43:00.787Z,102281.41
2023-02-19T12:45:36.999Z,102284.06
2023-02-19T12:48:14.812Z,102284.03
2023-02-19T12:50:47.679Z,102291.00
2023-02-19T12:53:40.391Z,102276.91
2023-02-19T12:56:18.888Z,102285.66
2023-02-19T12:59:05.243Z,102289.13
2023-02-19T13:01:43.887Z,102306.72
2023-02-19T13:04:41.521Z,102309.31
2023-02-19T13:07:24.060Z,102316.38
2023-02-19T13:09:59.234Z,102312.88
2023-02-19T13:12:34.305Z,102314.66
2023-02-19T13:15:14.743Z,102309.38
2023-02-19T13:17:50.636Z,102318.16
2023-02-19T13:20:31.494Z,102315.53
2023-02-19T13:23:30.170Z,102322.53
2023-02-19T13:26:18.219Z,102325.19
2023-02-19T13:29:28.302Z,102327.78
2023-02-19T13:32:29.307Z,102329.56
2023-02-19T13:35:30.346Z,102333.97
2023-02-19T13:38:03.159Z,102339.28
2023-02-19T13:40:36.296Z,102342.81
2023-02-19T13:43:13.845Z,102352.47
2023-02-19T13:45:46.123Z,102359.53
2023-02-19T13:48:33.040Z,102371.81
2023-02-19T13:51:21.647Z,102370.06
2023-02-19T13:53:55.962Z,102370.94
2023-02-19T13:56:34.845Z,102367.41
2023-02-19T13:59:11.034Z,102368.28
2023-02-19T14:01:51.440Z,102363.03
2023-02-19T14:04:19.902Z,102367.44
2023-02-19T14:07:07.110Z,102351.63
2023-02-19T14:09:37.242Z,102360.41
2023-02-19T14:12:13.736Z,102356.91
2023-02-19T14:14:53.227Z,102369.19
2023-02-19T14:17:46.578Z,102377.97
2023-02-19T14:20:16.494Z,102380.56
2023-02-19T14:22:52.741Z,102386.72
2023-02-19T14:25:31.792Z,102384.94
2023-02-19T14:28:11.507Z,102384.94
2023-02-19T14:31:17.830Z,102394.59
2023-02-19T14:33:50.437Z,102390.22
2023-02-19T14:36:45.144Z,102395.47
2023-02-19T14:39:19.923Z,102385.84
2023-02-19T14:42:15.639Z,102394.59
2023-02-19T14:44:52.314Z,102382.34
2023-02-19T14:47:24.556Z,102386.72
2023-02-19T14:49:58.210Z,102380.59
2023-02-19T14:52:36.702Z,102380.59
2023-02-19T14:55:25.882Z,102377.94
2023-02-19T14:57:56.761Z,102380.59
2023-02-19T15:00:50.052Z,102358.66
2023-02-19T15:03:37.819Z,102356.03
2023-02-19T15:06:17.901Z,102346.38
2023-02-19T15:08:53.449Z,102342.00
2023-02-19T15:11:32.274Z,102343.75
2023-02-19T15:14:03.987Z,102332.38
2023-02-19T15:16:35.680Z,102326.19
2023-02-19T15:19:09.299Z,102326.22
2023-02-19T15:21:44.650Z,102318.34
2023-02-19T15:24:16.514Z,102318.34
2023-02-19T15:26:51.256Z,102319.19
2023-02-19T15:29:24.950Z,102319.19
2023-02-19T15:31:57.141Z,102325.31
2023-02-19T15:34:32.228Z,102336.75
2023-02-19T15:37:12.754Z,102347.25
2023-02-19T15:39:49.673Z,102353.38
2023-02-19T15:42:39.994Z,102349.00
2023-02-19T15:45:40.521Z,102356.88
2023-02-19T15:48:18.638Z,102363.91
2023-02-19T15:50:53.514Z,102364.75
2023-02-19T15:53:29.623Z,102364.78
2023-02-19T15:56:11.142Z,102376.19
2023-02-19T15:59:13.360Z,102384.91
2023-02-19T16:01:41.017Z,102381.41
2023-02-19T16:04:16.441Z,102384.91
2023-02-19T16:07:03.723Z,102379.66
2023-02-19T16:09:38.147Z,102377.88
2023-02-19T16:12:23.976Z,102388.38
2023-02-19T16:14:51.099Z,102389.28
2023-02-19T16:17:27.814Z,102384.88
2023-02-19T16:19:59.632Z,102396.25
2023-02-19T16:22:40.795Z,102398.88
2023-02-19T16:25:18.330Z,102428.59
2023-02-19T16:27:45.499Z,102438.13
2023-02-19T16:30:29.668Z,102450.28
2023-02-19T16:33:31.944Z,102444.88
2023-02-19T16:36:34.293Z,102447.41
2023-02-19T16:39:08.427Z,102456.03
2023-02-19T16:41:47.548Z,102465.63
2023-02-19T16:44:20.710Z,102475.19
2023-02-19T16:46:50.102Z,102479.47
2023-02-19T16:49:17.154Z,102486.41
2023-02-19T16:51:46.641Z,102491.56
2023-02-19T16:54:14.164Z,102495.00
2023-02-19T16:56:41.292Z,102486.22
2023-02-19T16:59:10.654Z,102492.31
2023-02-19T17:01:38.237Z,102497.47
2023-02-19T17:04:11.074Z,102487.84
2023-02-19T17:06:39.475Z,102492.16
2023-02-19T17:09:08.689Z,102493.00
2023-02-19T17:11:36.557Z,102499.13
2023-02-19T17:14:03.974Z,102499.09
2023-02-19T17:16:39.837Z,102493.84
2023-02-19T17:19:14.978Z,102506.09
2023-02-19T17:21:42.588Z,102502.56
2023-02-19T17:24:09.609Z,102506.03
2023-02-19T17:26:37.013Z,102516.47
2023-02-19T17:29:07.110Z,102523.47
2023-02-19T17:31:34.375Z,102516.41
2023-02-19T17:34:01.464Z,102512.94
2023-02-19T17:36:32.170Z,102507.69
2023-02-19T17:39:04.086Z,102514.66
2023-02-19T17:41:31.172Z,102512.03
2023-02-19T17:43:58.134Z,102514.66
2023-02-19T17:46:27.158Z,102510.25
2023-02-19T17:48:54.733Z,102504.16
2023-02-19T17:51:22.378Z,102510.19
2023-02-19T17:53:49.777Z,102511.88
2023-02-19T17:56:26.586Z,102518.84
2023-02-19T17:58:55.825Z,102510.94
2023-02-19T18:01:23.431Z,102522.22
2023-02-19T18:03:50.810Z,102508.19
2023-02-19T18:06:18.087Z,102514.19
2023-02-19T18:08:53.226Z,102525.50
2023-02-19T18:11:22.887Z,102524.59
2023-02-19T18:13:52.144Z,102534.22
2023-02-19T18:16:22.013Z,102530.75
2023-02-19T18:18:49.958Z,102529.88
2023-02-19T18:21:17.173Z,102534.22
2023-02-19T18:23:46.031Z,102540.31
2023-02-19T18:26:13.783Z,102535.91
2023-02-19T18:28:41.034Z,102550.78
2023-02-19T18:31:08.339Z,102545.59
2023-02-19T18:33:35.604Z,102547.38
2023-02-19T18:36:04.330Z,102552.63
2023-02-19T18:38:31.291Z,102554.41
2023-02-19T18:41:10.513Z,102559.69
2023-02-19T18:43:37.524Z,102557.13
2023-02-19T18:46:09.356Z,102556.25
2023-02-19T18:48:37.199Z,102556.22
2023-02-19T18:51:04.667Z,102548.41
2023-02-19T18:53:31.598Z,102548.47
2023-02-19T18:56:00.279Z,102549.34
2023-02-19T18:58:28.477Z,102537.09
2023-02-19T19:00:55.532Z,102539.75
2023-02-19T19:03:22.514Z,102539.75
2023-02-19T19:05:49.475Z,102539.81
2023-02-19T19:08:16.538Z,102541.59
2023-02-19T19:10:43.565Z,102539.84
2023-02-19T19:13:10.554Z,102545.94
2023-02-19T19:15:39.629Z,102545.94
2023-02-19T19:18:07.572Z,102540.69
2023-02-19T19:20:34.638Z,102536.34
2023-02-19T19:23:01.658Z,102547.69
2023-02-19T19:25:28.632Z,102546.84
2023-02-19T19:27:56.592Z,102561.66
2023-02-19T19:30:23.610Z,102559.88
2023-02-19T19:32:52.472Z,102552.03
2023-02-19T19:35:21.423Z,102557.31
2023-02-19T19:37:49.257Z,102557.38
2023-02-19T19:40:18.141Z,102553.91
2023-02-19T19:42:45.526Z,102557.38
2023-02-19T19:45:16.263Z,102555.66
2023-02-19T19:47:43.240Z,102552.19
2023-02-19T19:50:13.140Z,102565.34
2023-02-19T19:52:40.356Z,102556.66
2023-02-19T19:55:07.733Z,102554.03
2023-02-19T19:57:34.652Z,102561.88
2023-02-19T20:00:02.323Z,102574.91
2023-02-19T20:02:41.668Z,102566.94
2023-02-19T20:05:08.826Z,102573.84
2023-02-19T20:07:36.194Z,102582.50
2023-02-19T20:10:03.490Z,102586.72
2023-02-19T20:12:30.478Z,102583.91
2023-02-19T20:14:57.416Z,102582.84
2023-02-19T20:17:27.351Z,102581.78
2023-02-19T20:19:54.588Z,102600.84
2023-02-19T20:22:21.573Z,102582.31
2023-02-19T20:24:54.216Z,102582.16
2023-02-19T20:27:23.258Z,102597.72
2023-02-19T20:29:50.621Z,102601.06
2023-02-19T20:32:20.606Z,102600.97
2023-02-19T20:34:48.160Z,102594.75
2023-02-19T20:37:15.740Z,102591.19
2023-02-19T20:39:42.775Z,102601.56
2023-02-19T20:42:09.793Z,102589.25
2023-02-19T20:44:36.842Z,102583.09
2023-02-19T20:47:04.322Z,102577.84
2023-02-19T20:49:32.525Z,102572.56
2023-02-19T20:52:06.399Z,102570.78
2023-02-19T20:54:35.319Z,102560.31
2023-02-19T20:57:05.541Z,102576.84
2023-02-19T20:59:38.647Z,102573.31
2023-02-19T21:02:17.438Z,102572.44
2023-02-19T21:04:44.458Z,102568.00
2023-02-19T21:07:11.465Z,102579.28
2023-02-19T21:09:38.485Z,102580.97
2023-02-19T21:12:05.769Z,102582.69
2023-02-19T21:14:32.896Z,102586.13
2023-02-19T21:17:00.707Z,102581.75
2023-02-19T21:19:27.690Z,102581.66
2023-02-19T21:21:54.713Z,102586.78
2023-02-19T21:24:22.175Z,102586.78
2023-02-19T21:26:49.297Z,102579.75
2023-02-19T21:29:20.476Z,102570.97
2023-02-19T21:31:55.013Z,102561.34
2023-02-19T21:34:27.512Z,102561.25
2023-02-19T21:36:55.754Z,102550.75
2023-02-19T21:39:25.713Z,102550.75
2023-02-19T21:41:53.000Z,102553.34
2023-02-19T21:44:21.231Z,102559.41
2023-02-19T21:46:48.765Z,102565.50
2023-02-19T21:49:16.022Z,102550.66
2023-02-19T21:51:45.597Z,102556.78
2023-02-19T21:54:24.669Z,102562.88
2023-02-19T21:56:53.264Z,102564.63
2023-02-19T21:59:22.642Z,102563.75
2023-02-19T22:01:50.552Z,102566.34
2023-02-19T22:04:20.822Z,102555.84
2023-02-19T22:06:47.885Z,102546.25
2023-02-19T22:09:15.675Z,102542.63
2023-02-19T22:11:42.942Z,102546.09
2023-02-19T22:14:10.059Z,102552.19
2023-02-19T22:16:37.197Z,102549.53
2023-02-19T22:19:04.795Z,102560.84
2023-02-19T22:21:32.603Z,102552.97
2023-02-19T22:24:02.663Z,102553.78
2023-02-19T22:26:35.291Z,102552.03
2023-02-19T22:29:07.160Z,102559.78
2023-02-19T22:31:35.897Z,102547.53
2023-02-19T22:34:04.057Z,102563.19
2023-02-19T22:36:33.840Z,102559.69
2023-02-19T22:39:01.660Z,102550.97
2023-02-19T22:41:29.186Z,102549.25
2023-02-19T22:43:58.498Z,102559.72
2023-02-19T22:46:30.189Z,102554.44
2023-02-19T22:48:58.475Z,102552.66
2023-02-19T22:51:25.974Z,102559.59
2023-02-19T22:53:56.230Z,102554.34
2023-02-19T22:56:27.066Z,102549.06
2023-02-19T22:58:58.023Z,102556.00
2023-02-19T23:01:25.796Z,102544.63
2023-02-19T23:03:59.040Z,102538.47
2023-02-19T23:06:33.240Z,102542.78
2023-02-19T23:09:10.552Z,102542.75
2023-02-19T23:11:39.144Z,102549.66
2023-02-19T23:14:07.815Z,102539.22
2023-02-19T23:16:38.032Z,102532.31
2023-02-19T23:19:12.809Z,102535.84
2023-02-19T23:21:43.069Z,102534.09
2023-02-19T23:24:13.400Z,102514.03
2023-02-19T23:26:52.196Z,102519.28
2023-02-19T23:29:25.684Z,102518.41
2023-02-19T23:31:54.480Z,102521.03
2023-02-19T23:34:22.108Z,102507.13
2023-02-19T23:36:51.135Z,102496.69
2023-02-19T23:39:21.492Z,102500.19
2023-02-19T23:41:57.331Z,102499.41
2023-02-19T23:44:25.579Z,102493.34
2023-02-19T23:46:52.661Z,102501.25
2023-02-19T23:49:20.353Z,102501.28
2023-02-19T23:51:47.796Z,102496.94
2023-02-19T23:54:15.686Z,102502.19
2023-02-19T23:56:43.008Z,102503.06
2023-02-19T23:59:10.071Z,102506.59
